Sivas Airport Sivas TR
ICAO: LTAR
IATA: VAS
Category: Medium
Scheduled Services: Yes

Elevation: 5236 ft
TransAlt. 12000 ft.

Airport Communications:
GND:121.9
TWR:118.1

LTAR Zoom In..

If you have problems with the map follow the link
https://www.worldairports.se/pages/airport.php?
ICAO=LTAR

Runways:

(A) RW 01 length 12503 ft width 148 ft
ILS 109.10 / hdg 13

(B) RW 19 length 12503 ft width 148 ft
---- / hdg 193

Location; LTAR
Day. 22 / Time. 11.50 Zulu
* QNH: 1022
* Temperature: 13° c. 55.4°f.
* Wind from: 240° Speed 08 kn.
Dewpoint: 04° c.
Visibility: 10 km or more.
Clouds: Scattered 3500 ft.

LTAR 221150Z 24008KT 210V290 9999 SCT035 13/04 Q1022


Wind From 240°
Speed 08 kn.

 
 
jpsmedia.com for Web Design worldairports.se 2018   terms of use